Terminal Aerodrome Forecast
Issued by NWS

Home | Current Version | Previous Version | Text Only | Print | Product List | Glossary On
Versions: 1 2 3 4 5 6 7 8 9 10 11 12 13 14 15 16 17
000
FTUS45 KTFX 011700
TAFHLN
TAF
KHLN 011739Z 0118/0218 28022G34KT P6SM SCT060
     FM020100 27016KT P6SM SCT050 BKN080
     FM020700 28011KT P6SM VCSH SCT035 BKN060=

USA.gov is the U.S. government's official web portal to all federal, state and local government web resources and services.